sensor_id;sensor_type;location;lat;lon;timestamp;P1;durP1;ratioP1;P2;durP2;ratioP2
11655;SDS011;5884;43.618;1.438;2023-02-26T05:45:38;6.03;;;3.10;;
11655;SDS011;5884;43.618;1.438;2023-02-26T05:48:05;7.33;;;3.83;;
11655;SDS011;5884;43.618;1.438;2023-02-26T05:50:35;6.17;;;3.17;;
11655;SDS011;5884;43.618;1.438;2023-02-26T05:53:02;6.47;;;3.53;;
11655;SDS011;5884;43.618;1.438;2023-02-26T05:55:29;5.67;;;3.13;;
11655;SDS011;5884;43.618;1.438;2023-02-26T05:57:57;7.63;;;3.10;;
11655;SDS011;5884;43.618;1.438;2023-02-26T06:00:24;8.90;;;3.57;;
11655;SDS011;5884;43.618;1.438;2023-02-26T06:02:53;8.60;;;3.43;;
11655;SDS011;5884;43.618;1.438;2023-02-26T06:05:20;4.87;;;3.50;;
11655;SDS011;5884;43.618;1.438;2023-02-26T06:07:48;7.37;;;3.17;;
11655;SDS011;5884;43.618;1.438;2023-02-26T06:10:15;6.53;;;3.30;;
11655;SDS011;5884;43.618;1.438;2023-02-26T06:12:43;4.70;;;3.47;;
11655;SDS011;5884;43.618;1.438;2023-02-26T06:15:10;8.03;;;3.63;;
11655;SDS011;5884;43.618;1.438;2023-02-26T06:17:37;6.73;;;3.70;;
11655;SDS011;5884;43.618;1.438;2023-02-26T06:20:07;9.70;;;3.97;;
11655;SDS011;5884;43.618;1.438;2023-02-26T06:22:36;8.13;;;4.10;;
11655;SDS011;5884;43.618;1.438;2023-02-26T06:25:03;11.63;;;3.70;;
11655;SDS011;5884;43.618;1.438;2023-02-26T06:27:32;7.13;;;3.37;;
11655;SDS011;5884;43.618;1.438;2023-02-26T06:29:59;6.13;;;3.73;;
11655;SDS011;5884;43.618;1.438;2023-02-26T06:32:26;9.30;;;3.57;;
11655;SDS011;5884;43.618;1.438;2023-02-26T06:34:54;7.77;;;4.13;;
11655;SDS011;5884;43.618;1.438;2023-02-26T06:37:22;6.93;;;3.50;;
11655;SDS011;5884;43.618;1.438;2023-02-26T06:39:50;5.23;;;3.23;;
11655;SDS011;5884;43.618;1.438;2023-02-26T06:42:17;6.17;;;3.47;;
11655;SDS011;5884;43.618;1.438;2023-02-26T06:44:44;6.23;;;3.00;;
11655;SDS011;5884;43.618;1.438;2023-02-26T06:47:11;6.93;;;2.90;;
11655;SDS011;5884;43.618;1.438;2023-02-26T06:49:38;8.13;;;3.10;;
11655;SDS011;5884;43.618;1.438;2023-02-26T06:52:06;5.23;;;3.20;;
11655;SDS011;5884;43.618;1.438;2023-02-26T06:54:34;5.53;;;2.83;;
11655;SDS011;5884;43.618;1.438;2023-02-26T06:57:02;7.17;;;3.17;;
11655;SDS011;5884;43.618;1.438;2023-02-26T06:59:29;6.33;;;3.00;;
11655;SDS011;5884;43.618;1.438;2023-02-26T07:01:57;7.07;;;3.20;;
11655;SDS011;5884;43.618;1.438;2023-02-26T07:04:24;4.93;;;2.90;;
11655;SDS011;5884;43.618;1.438;2023-02-26T07:06:51;8.67;;;2.73;;
11655;SDS011;5884;43.618;1.438;2023-02-26T07:09:18;8.27;;;3.27;;
11655;SDS011;5884;43.618;1.438;2023-02-26T07:11:47;7.50;;;3.20;;
11655;SDS011;5884;43.618;1.438;2023-02-26T07:14:15;6.27;;;2.70;;
11655;SDS011;5884;43.618;1.438;2023-02-26T07:16:42;5.97;;;2.60;;
11655;SDS011;5884;43.618;1.438;2023-02-26T07:19:09;9.17;;;2.87;;
11655;SDS011;5884;43.618;1.438;2023-02-26T07:21:36;5.73;;;3.00;;
11655;SDS011;5884;43.618;1.438;2023-02-26T07:24:04;7.07;;;3.17;;
11655;SDS011;5884;43.618;1.438;2023-02-26T07:26:32;8.17;;;3.00;;
11655;SDS011;5884;43.618;1.438;2023-02-26T07:29:01;6.50;;;2.73;;
11655;SDS011;5884;43.618;1.438;2023-02-26T07:31:28;5.53;;;2.83;;
11655;SDS011;5884;43.618;1.438;2023-02-26T07:33:55;4.60;;;2.93;;
11655;SDS011;5884;43.618;1.438;2023-02-26T07:36:22;6.07;;;2.90;;
11655;SDS011;5884;43.618;1.438;2023-02-26T07:38:50;5.67;;;2.83;;
11655;SDS011;5884;43.618;1.438;2023-02-26T07:41:17;6.07;;;2.57;;
11655;SDS011;5884;43.618;1.438;2023-02-26T07:43:44;6.67;;;2.33;;
11655;SDS011;5884;43.618;1.438;2023-02-26T07:46:13;7.00;;;2.70;;
11655;SDS011;5884;43.618;1.438;2023-02-26T07:48:40;4.70;;;2.77;;
11655;SDS011;5884;43.618;1.438;2023-02-26T07:51:07;6.43;;;2.83;;
11655;SDS011;5884;43.618;1.438;2023-02-26T07:53:35;11.27;;;3.10;;
11655;SDS011;5884;43.618;1.438;2023-02-26T07:56:03;6.60;;;2.90;;
11655;SDS011;5884;43.618;1.438;2023-02-26T07:58:30;6.40;;;2.80;;
11655;SDS011;5884;43.618;1.438;2023-02-26T08:00:57;5.03;;;2.60;;
11655;SDS011;5884;43.618;1.438;2023-02-26T08:03:26;4.67;;;2.50;;
11655;SDS011;5884;43.618;1.438;2023-02-26T08:05:53;8.27;;;2.60;;
11655;SDS011;5884;43.618;1.438;2023-02-26T08:08:21;5.97;;;2.43;;
11655;SDS011;5884;43.618;1.438;2023-02-26T08:10:48;13.13;;;2.93;;
11655;SDS011;5884;43.618;1.438;2023-02-26T08:13:15;10.00;;;2.60;;
11655;SDS011;5884;43.618;1.438;2023-02-26T08:15:42;6.07;;;2.47;;
11655;SDS011;5884;43.618;1.438;2023-02-26T08:18:10;5.33;;;2.50;;
11655;SDS011;5884;43.618;1.438;2023-02-26T08:20:39;5.50;;;2.57;;
11655;SDS011;5884;43.618;1.438;2023-02-26T08:23:06;7.60;;;2.50;;
11655;SDS011;5884;43.618;1.438;2023-02-26T08:25:34;6.53;;;2.80;;
11655;SDS011;5884;43.618;1.438;2023-02-26T08:28:01;7.43;;;2.90;;
11655;SDS011;5884;43.618;1.438;2023-02-26T08:30:28;5.80;;;2.40;;
11655;SDS011;5884;43.618;1.438;2023-02-26T08:32:56;6.30;;;2.50;;
11655;SDS011;5884;43.618;1.438;2023-02-26T08:35:23;5.87;;;2.50;;
11655;SDS011;5884;43.618;1.438;2023-02-26T08:37:52;4.07;;;2.40;;
11655;SDS011;5884;43.618;1.438;2023-02-26T08:40:19;5.87;;;2.47;;
11655;SDS011;5884;43.618;1.438;2023-02-26T08:42:46;4.17;;;2.37;;
11655;SDS011;5884;43.618;1.438;2023-02-26T08:45:13;5.43;;;2.40;;
11655;SDS011;5884;43.618;1.438;2023-02-26T08:47:41;5.60;;;2.30;;
11655;SDS011;5884;43.618;1.438;2023-02-26T08:50:10;7.90;;;2.40;;
11655;SDS011;5884;43.618;1.438;2023-02-26T08:52:38;5.33;;;2.33;;
11655;SDS011;5884;43.618;1.438;2023-02-26T08:55:07;5.90;;;2.50;;
11655;SDS011;5884;43.618;1.438;2023-02-26T08:57:35;8.20;;;2.90;;
11655;SDS011;5884;43.618;1.438;2023-02-26T09:00:03;6.77;;;2.47;;
11655;SDS011;5884;43.618;1.438;2023-02-26T09:02:34;6.90;;;2.53;;
11655;SDS011;5884;43.618;1.438;2023-02-26T09:05:02;5.03;;;2.20;;
11655;SDS011;5884;43.618;1.438;2023-02-26T09:07:30;6.30;;;2.70;;
11655;SDS011;5884;43.618;1.438;2023-02-26T09:09:58;7.13;;;2.50;;
11655;SDS011;5884;43.618;1.438;2023-02-26T09:12:26;3.87;;;2.40;;
11655;SDS011;5884;43.618;1.438;2023-02-26T09:14:53;4.17;;;2.13;;
11655;SDS011;5884;43.618;1.438;2023-02-26T09:17:23;4.70;;;2.30;;
11655;SDS011;5884;43.618;1.438;2023-02-26T09:19:50;7.90;;;2.60;;
11655;SDS011;5884;43.618;1.438;2023-02-26T09:22:17;5.87;;;2.50;;
11655;SDS011;5884;43.618;1.438;2023-02-26T09:24:45;9.00;;;2.40;;
11655;SDS011;5884;43.618;1.438;2023-02-26T09:27:12;6.63;;;2.80;;
11655;SDS011;5884;43.618;1.438;2023-02-26T09:29:40;10.97;;;3.00;;
11655;SDS011;5884;43.618;1.438;2023-02-26T09:32:08;6.30;;;3.03;;
11655;SDS011;5884;43.618;1.438;2023-02-26T09:34:35;9.23;;;3.03;;
11655;SDS011;5884;43.618;1.438;2023-02-26T09:37:04;11.73;;;3.23;;
11655;SDS011;5884;43.618;1.438;2023-02-26T09:39:34;5.57;;;3.10;;
11655;SDS011;5884;43.618;1.438;2023-02-26T09:42:03;7.27;;;2.83;;
11655;SDS011;5884;43.618;1.438;2023-02-26T09:44:37;8.70;;;2.50;;
11655;SDS011;5884;43.618;1.438;2023-02-26T09:47:10;4.80;;;2.90;;
11655;SDS011;5884;43.618;1.438;2023-02-26T09:49:45;7.77;;;3.10;;
11655;SDS011;5884;43.618;1.438;2023-02-26T09:52:20;8.50;;;3.00;;
11655;SDS011;5884;43.618;1.438;2023-02-26T09:54:54;6.57;;;3.00;;
11655;SDS011;5884;43.618;1.438;2023-02-26T09:57:26;7.70;;;2.93;;
11655;SDS011;5884;43.618;1.438;2023-02-26T09:59:57;8.47;;;3.50;;
11655;SDS011;5884;43.618;1.438;2023-02-26T10:02:31;9.40;;;3.37;;
11655;SDS011;5884;43.618;1.438;2023-02-26T10:05:09;7.10;;;3.27;;
11655;SDS011;5884;43.618;1.438;2023-02-26T10:07:46;5.23;;;2.97;;
11655;SDS011;5884;43.618;1.438;2023-02-26T10:10:24;9.63;;;4.33;;
11655;SDS011;5884;43.618;1.438;2023-02-26T10:13:00;8.27;;;4.07;;
11655;SDS011;5884;43.618;1.438;2023-02-26T10:15:30;8.80;;;3.47;;
11655;SDS011;5884;43.618;1.438;2023-02-26T10:18:05;9.23;;;3.50;;
11655;SDS011;5884;43.618;1.438;2023-02-26T10:20:41;5.87;;;3.43;;
11655;SDS011;5884;43.618;1.438;2023-02-26T10:23:17;8.43;;;3.47;;
11655;SDS011;5884;43.618;1.438;2023-02-26T10:25:50;11.63;;;3.70;;
11655;SDS011;5884;43.618;1.438;2023-02-26T10:28:32;8.83;;;3.70;;
11655;SDS011;5884;43.618;1.438;2023-02-26T10:31:13;9.23;;;4.00;;
11655;SDS011;5884;43.618;1.438;2023-02-26T10:33:54;8.70;;;3.50;;
11655;SDS011;5884;43.618;1.438;2023-02-26T10:36:34;7.80;;;3.57;;
11655;SDS011;5884;43.618;1.438;2023-02-26T10:39:20;8.80;;;4.07;;
11655;SDS011;5884;43.618;1.438;2023-02-26T10:41:54;9.50;;;3.50;;
11655;SDS011;5884;43.618;1.438;2023-02-26T10:44:26;8.70;;;4.27;;
11655;SDS011;5884;43.618;1.438;2023-02-26T10:47:02;9.17;;;4.00;;
11655;SDS011;5884;43.618;1.438;2023-02-26T10:49:42;7.97;;;4.20;;
11655;SDS011;5884;43.618;1.438;2023-02-26T10:52:18;6.53;;;3.80;;
11655;SDS011;5884;43.618;1.438;2023-02-26T10:54:59;8.70;;;4.40;;
11655;SDS011;5884;43.618;1.438;2023-02-26T10:57:46;6.80;;;3.60;;
11655;SDS011;5884;43.618;1.438;2023-02-26T11:00:19;10.73;;;4.27;;
11655;SDS011;5884;43.618;1.438;2023-02-26T11:02:50;9.17;;;4.37;;
11655;SDS011;5884;43.618;1.438;2023-02-26T11:05:21;7.47;;;3.87;;
11655;SDS011;5884;43.618;1.438;2023-02-26T11:07:53;7.77;;;4.40;;
11655;SDS011;5884;43.618;1.438;2023-02-26T11:10:24;10.73;;;4.17;;
11655;SDS011;5884;43.618;1.438;2023-02-26T11:12:56;7.83;;;4.20;;
11655;SDS011;5884;43.618;1.438;2023-02-26T11:15:25;7.37;;;4.10;;
11655;SDS011;5884;43.618;1.438;2023-02-26T11:17:55;7.00;;;4.23;;
11655;SDS011;5884;43.618;1.438;2023-02-26T11:20:27;7.27;;;3.90;;
11655;SDS011;5884;43.618;1.438;2023-02-26T11:22:59;9.27;;;4.77;;
11655;SDS011;5884;43.618;1.438;2023-02-26T11:25:30;7.37;;;4.00;;
11655;SDS011;5884;43.618;1.438;2023-02-26T11:28:00;7.37;;;4.47;;
11655;SDS011;5884;43.618;1.438;2023-02-26T11:30:31;8.97;;;4.20;;
11655;SDS011;5884;43.618;1.438;2023-02-26T11:35:57;6.57;;;4.13;;
11655;SDS011;5884;43.618;1.438;2023-02-26T11:38:27;8.03;;;4.23;;
11655;SDS011;5884;43.618;1.438;2023-02-26T11:40:57;8.50;;;4.10;;
11655;SDS011;5884;43.618;1.438;2023-02-26T11:43:32;8.57;;;4.77;;
11655;SDS011;5884;43.618;1.438;2023-02-26T11:46:02;8.23;;;4.60;;
11655;SDS011;5884;43.618;1.438;2023-02-26T11:48:35;7.43;;;4.03;;
11655;SDS011;5884;43.618;1.438;2023-02-26T11:51:06;8.30;;;4.40;;
11655;SDS011;5884;43.618;1.438;2023-02-26T11:53:40;8.20;;;4.53;;
11655;SDS011;5884;43.618;1.438;2023-02-26T11:56:18;8.00;;;4.53;;
11655;SDS011;5884;43.618;1.438;2023-02-26T11:58:52;6.60;;;3.97;;
11655;SDS011;5884;43.618;1.438;2023-02-26T12:01:20;7.87;;;4.30;;
11655;SDS011;5884;43.618;1.438;2023-02-26T12:03:57;7.87;;;3.73;;
11655;SDS011;5884;43.618;1.438;2023-02-26T12:06:26;7.00;;;3.90;;
11655;SDS011;5884;43.618;1.438;2023-02-26T12:08:53;6.50;;;4.40;;
11655;SDS011;5884;43.618;1.438;2023-02-26T12:14:53;9.07;;;4.73;;
11655;SDS011;5884;43.618;1.438;2023-02-26T12:17:48;5.63;;;3.97;;
11655;SDS011;5884;43.618;1.438;2023-02-26T12:20:50;6.90;;;4.00;;
11655;SDS011;5884;43.618;1.438;2023-02-26T12:23:33;11.40;;;4.50;;
11655;SDS011;5884;43.618;1.438;2023-02-26T12:26:29;6.73;;;4.27;;
11655;SDS011;5884;43.618;1.438;2023-02-26T12:32:01;7.33;;;4.10;;
11655;SDS011;5884;43.618;1.438;2023-02-26T12:37:49;7.17;;;4.03;;
11655;SDS011;5884;43.618;1.438;2023-02-26T12:43:44;7.50;;;4.60;;
11655;SDS011;5884;43.618;1.438;2023-02-26T12:46:18;6.90;;;4.07;;
11655;SDS011;5884;43.618;1.438;2023-02-26T12:52:18;5.63;;;4.17;;
11655;SDS011;5884;43.618;1.438;2023-02-26T12:55:19;6.20;;;3.80;;
11655;SDS011;5884;43.618;1.438;2023-02-26T12:58:04;9.60;;;4.03;;
11655;SDS011;5884;43.618;1.438;2023-02-26T13:04:19;9.57;;;3.83;;
11655;SDS011;5884;43.618;1.438;2023-02-26T13:10:14;8.47;;;4.10;;
11655;SDS011;5884;43.618;1.438;2023-02-26T13:12:54;6.33;;;3.60;;
11655;SDS011;5884;43.618;1.438;2023-02-26T13:15:43;5.97;;;3.33;;
11655;SDS011;5884;43.618;1.438;2023-02-26T13:18:24;6.90;;;3.33;;
11655;SDS011;5884;43.618;1.438;2023-02-26T13:21:01;6.20;;;3.67;;
11655;SDS011;5884;43.618;1.438;2023-02-26T13:23:34;4.60;;;3.33;;
11655;SDS011;5884;43.618;1.438;2023-02-26T13:26:08;6.70;;;3.40;;
11655;SDS011;5884;43.618;1.438;2023-02-26T13:28:38;8.33;;;3.73;;
11655;SDS011;5884;43.618;1.438;2023-02-26T13:31:11;6.33;;;3.23;;
11655;SDS011;5884;43.618;1.438;2023-02-26T13:33:42;4.10;;;2.73;;
11655;SDS011;5884;43.618;1.438;2023-02-26T13:36:11;3.20;;;2.30;;
11655;SDS011;5884;43.618;1.438;2023-02-26T13:38:45;4.27;;;2.10;;
11655;SDS011;5884;43.618;1.438;2023-02-26T13:41:24;3.43;;;1.90;;
11655;SDS011;5884;43.618;1.438;2023-02-26T13:44:04;7.77;;;2.30;;
11655;SDS011;5884;43.618;1.438;2023-02-26T13:46:47;7.03;;;2.50;;
11655;SDS011;5884;43.618;1.438;2023-02-26T13:49:51;4.07;;;1.90;;
11655;SDS011;5884;43.618;1.438;2023-02-26T13:52:31;3.17;;;1.53;;
11655;SDS011;5884;43.618;1.438;2023-02-26T13:55:02;2.73;;;1.23;;
11655;SDS011;5884;43.618;1.438;2023-02-26T13:57:36;3.53;;;1.33;;
11655;SDS011;5884;43.618;1.438;2023-02-26T14:00:21;2.10;;;1.50;;
11655;SDS011;5884;43.618;1.438;2023-02-26T14:02:54;2.80;;;1.30;;
11655;SDS011;5884;43.618;1.438;2023-02-26T14:08:21;2.10;;;1.40;;
11655;SDS011;5884;43.618;1.438;2023-02-26T14:11:26;3.63;;;1.23;;
11655;SDS011;5884;43.618;1.438;2023-02-26T14:14:13;1.93;;;1.00;;
11655;SDS011;5884;43.618;1.438;2023-02-26T14:16:52;4.40;;;1.20;;
11655;SDS011;5884;43.618;1.438;2023-02-26T14:19:25;3.37;;;0.97;;
11655;SDS011;5884;43.618;1.438;2023-02-26T14:21:55;4.47;;;1.23;;
11655;SDS011;5884;43.618;1.438;2023-02-26T14:24:30;8.97;;;1.53;;
11655;SDS011;5884;43.618;1.438;2023-02-26T14:27:20;1.93;;;1.30;;
11655;SDS011;5884;43.618;1.438;2023-02-26T14:29:59;1.80;;;1.27;;
11655;SDS011;5884;43.618;1.438;2023-02-26T14:32:44;2.53;;;1.20;;
11655;SDS011;5884;43.618;1.438;2023-02-26T14:35:15;3.50;;;1.57;;
11655;SDS011;5884;43.618;1.438;2023-02-26T14:37:48;2.93;;;1.63;;
11655;SDS011;5884;43.618;1.438;2023-02-26T14:40:24;2.30;;;1.37;;
11655;SDS011;5884;43.618;1.438;2023-02-26T14:42:52;4.13;;;2.07;;
11655;SDS011;5884;43.618;1.438;2023-02-26T14:45:30;2.43;;;1.50;;
11655;SDS011;5884;43.618;1.438;2023-02-26T14:48:03;4.47;;;1.83;;
11655;SDS011;5884;43.618;1.438;2023-02-26T14:50:35;3.33;;;1.80;;
11655;SDS011;5884;43.618;1.438;2023-02-26T14:53:36;2.50;;;1.60;;
11655;SDS011;5884;43.618;1.438;2023-02-26T14:56:21;9.53;;;1.73;;
11655;SDS011;5884;43.618;1.438;2023-02-26T14:59:04;3.13;;;1.40;;
11655;SDS011;5884;43.618;1.438;2023-02-26T15:01:56;3.00;;;1.50;;
11655;SDS011;5884;43.618;1.438;2023-02-26T15:04:51;2.50;;;1.27;;
11655;SDS011;5884;43.618;1.438;2023-02-26T15:07:51;2.13;;;1.03;;
11655;SDS011;5884;43.618;1.438;2023-02-26T15:10:37;3.97;;;1.23;;
11655;SDS011;5884;43.618;1.438;2023-02-26T15:13:36;3.30;;;1.50;;
11655;SDS011;5884;43.618;1.438;2023-02-26T15:16:32;1.50;;;1.13;;
11655;SDS011;5884;43.618;1.438;2023-02-26T15:19:20;9.50;;;1.30;;
11655;SDS011;5884;43.618;1.438;2023-02-26T15:22:03;4.23;;;1.47;;
11655;SDS011;5884;43.618;1.438;2023-02-26T15:24:45;2.27;;;1.20;;
11655;SDS011;5884;43.618;1.438;2023-02-26T15:27:14;2.30;;;1.20;;
11655;SDS011;5884;43.618;1.438;2023-02-26T15:29:44;2.50;;;1.37;;
11655;SDS011;5884;43.618;1.438;2023-02-26T15:32:15;2.63;;;1.30;;
11655;SDS011;5884;43.618;1.438;2023-02-26T15:34:56;2.13;;;1.30;;
11655;SDS011;5884;43.618;1.438;2023-02-26T15:37:27;2.10;;;1.10;;
11655;SDS011;5884;43.618;1.438;2023-02-26T15:39:57;4.40;;;1.33;;
11655;SDS011;5884;43.618;1.438;2023-02-26T15:42:29;2.50;;;1.20;;
11655;SDS011;5884;43.618;1.438;2023-02-26T15:45:02;1.93;;;1.40;;
11655;SDS011;5884;43.618;1.438;2023-02-26T15:47:37;3.10;;;1.30;;
11655;SDS011;5884;43.618;1.438;2023-02-26T15:50:09;3.33;;;1.27;;
11655;SDS011;5884;43.618;1.438;2023-02-26T15:52:41;2.10;;;1.20;;
11655;SDS011;5884;43.618;1.438;2023-02-26T15:55:12;2.43;;;1.17;;
11655;SDS011;5884;43.618;1.438;2023-02-26T15:57:42;5.43;;;1.20;;
11655;SDS011;5884;43.618;1.438;2023-02-26T16:00:12;3.33;;;1.47;;
11655;SDS011;5884;43.618;1.438;2023-02-26T16:02:48;1.57;;;1.13;;
11655;SDS011;5884;43.618;1.438;2023-02-26T16:05:19;4.30;;;1.30;;
11655;SDS011;5884;43.618;1.438;2023-02-26T16:07:46;2.47;;;1.60;;
11655;SDS011;5884;43.618;1.438;2023-02-26T16:10:15;2.50;;;1.43;;
11655;SDS011;5884;43.618;1.438;2023-02-26T16:12:53;2.40;;;1.50;;
11655;SDS011;5884;43.618;1.438;2023-02-26T16:15:23;4.37;;;1.63;;
11655;SDS011;5884;43.618;1.438;2023-02-26T16:17:56;4.80;;;1.67;;
11655;SDS011;5884;43.618;1.438;2023-02-26T16:20:27;3.57;;;1.47;;
11655;SDS011;5884;43.618;1.438;2023-02-26T16:23:06;1.73;;;1.20;;
11655;SDS011;5884;43.618;1.438;2023-02-26T16:25:38;2.60;;;1.20;;
11655;SDS011;5884;43.618;1.438;2023-02-26T16:28:11;2.10;;;1.53;;
11655;SDS011;5884;43.618;1.438;2023-02-26T16:30:42;2.90;;;1.10;;
11655;SDS011;5884;43.618;1.438;2023-02-26T16:33:14;8.20;;;1.20;;
11655;SDS011;5884;43.618;1.438;2023-02-26T16:35:45;3.03;;;1.37;;
11655;SDS011;5884;43.618;1.438;2023-02-26T16:38:16;3.37;;;1.50;;
11655;SDS011;5884;43.618;1.438;2023-02-26T16:40:53;7.20;;;1.60;;
11655;SDS011;5884;43.618;1.438;2023-02-26T16:43:31;3.67;;;1.30;;
11655;SDS011;5884;43.618;1.438;2023-02-26T16:46:13;4.50;;;1.43;;
11655;SDS011;5884;43.618;1.438;2023-02-26T16:48:45;2.80;;;1.43;;
11655;SDS011;5884;43.618;1.438;2023-02-26T16:51:19;2.27;;;1.43;;
11655;SDS011;5884;43.618;1.438;2023-02-26T16:53:51;4.77;;;1.50;;
11655;SDS011;5884;43.618;1.438;2023-02-26T16:56:24;4.10;;;1.50;;
11655;SDS011;5884;43.618;1.438;2023-02-26T16:58:56;2.27;;;1.60;;
11655;SDS011;5884;43.618;1.438;2023-02-26T17:01:32;2.33;;;1.47;;
11655;SDS011;5884;43.618;1.438;2023-02-26T17:04:03;4.53;;;1.33;;
11655;SDS011;5884;43.618;1.438;2023-02-26T17:06:34;3.40;;;1.60;;
11655;SDS011;5884;43.618;1.438;2023-02-26T17:09:06;4.73;;;1.57;;
11655;SDS011;5884;43.618;1.438;2023-02-26T17:11:50;3.33;;;1.70;;
11655;SDS011;5884;43.618;1.438;2023-02-26T17:14:31;7.07;;;2.63;;
11655;SDS011;5884;43.618;1.438;2023-02-26T17:17:06;3.53;;;1.87;;
11655;SDS011;5884;43.618;1.438;2023-02-26T17:19:34;3.73;;;1.60;;
11655;SDS011;5884;43.618;1.438;2023-02-26T17:22:03;3.13;;;1.80;;
11655;SDS011;5884;43.618;1.438;2023-02-26T17:24:35;3.50;;;1.80;;
11655;SDS011;5884;43.618;1.438;2023-02-26T17:27:06;3.43;;;2.40;;
11655;SDS011;5884;43.618;1.438;2023-02-26T17:29:36;5.27;;;2.27;;
11655;SDS011;5884;43.618;1.438;2023-02-26T17:32:05;2.77;;;1.70;;
11655;SDS011;5884;43.618;1.438;2023-02-26T17:34:38;4.07;;;2.23;;
11655;SDS011;5884;43.618;1.438;2023-02-26T17:37:07;6.50;;;3.17;;
11655;SDS011;5884;43.618;1.438;2023-02-26T17:39:36;8.03;;;4.13;;
11655;SDS011;5884;43.618;1.438;2023-02-26T17:42:07;4.40;;;2.37;;
11655;SDS011;5884;43.618;1.438;2023-02-26T17:44:36;4.87;;;2.50;;
11655;SDS011;5884;43.618;1.438;2023-02-26T17:47:04;5.80;;;2.33;;
11655;SDS011;5884;43.618;1.438;2023-02-26T17:49:32;3.70;;;1.93;;
11655;SDS011;5884;43.618;1.438;2023-02-26T17:51:59;3.77;;;1.73;;
11655;SDS011;5884;43.618;1.438;2023-02-26T17:54:27;3.13;;;1.80;;
11655;SDS011;5884;43.618;1.438;2023-02-26T17:56:55;6.27;;;1.90;;
11655;SDS011;5884;43.618;1.438;2023-02-26T17:59:23;6.80;;;1.80;;
11655;SDS011;5884;43.618;1.438;2023-02-26T18:01:51;3.40;;;1.73;;
11655;SDS011;5884;43.618;1.438;2023-02-26T18:04:18;1.97;;;1.33;;
11655;SDS011;5884;43.618;1.438;2023-02-26T18:06:46;2.50;;;1.80;;
11655;SDS011;5884;43.618;1.438;2023-02-26T18:09:15;4.63;;;2.10;;
11655;SDS011;5884;43.618;1.438;2023-02-26T18:11:44;4.50;;;1.87;;
11655;SDS011;5884;43.618;1.438;2023-02-26T18:14:11;4.63;;;1.97;;
11655;SDS011;5884;43.618;1.438;2023-02-26T18:16:40;2.37;;;1.50;;
11655;SDS011;5884;43.618;1.438;2023-02-26T18:19:10;3.27;;;1.60;;
11655;SDS011;5884;43.618;1.438;2023-02-26T18:21:40;3.00;;;1.80;;
11655;SDS011;5884;43.618;1.438;2023-02-26T18:24:07;4.33;;;2.10;;
11655;SDS011;5884;43.618;1.438;2023-02-26T18:26:35;3.10;;;1.80;;
11655;SDS011;5884;43.618;1.438;2023-02-26T18:29:03;4.23;;;1.80;;
11655;SDS011;5884;43.618;1.438;2023-02-26T18:31:31;3.60;;;1.93;;
11655;SDS011;5884;43.618;1.438;2023-02-26T18:33:58;3.37;;;1.73;;
11655;SDS011;5884;43.618;1.438;2023-02-26T18:36:27;4.87;;;2.00;;
11655;SDS011;5884;43.618;1.438;2023-02-26T18:39:02;3.07;;;1.87;;
11655;SDS011;5884;43.618;1.438;2023-02-26T18:41:32;4.70;;;2.60;;
11655;SDS011;5884;43.618;1.438;2023-02-26T18:44:00;3.50;;;2.40;;
11655;SDS011;5884;43.618;1.438;2023-02-26T18:46:28;3.50;;;2.07;;
11655;SDS011;5884;43.618;1.438;2023-02-26T18:48:58;3.63;;;2.00;;
11655;SDS011;5884;43.618;1.438;2023-02-26T18:51:26;5.53;;;2.40;;
11655;SDS011;5884;43.618;1.438;2023-02-26T18:53:53;5.03;;;2.80;;
11655;SDS011;5884;43.618;1.438;2023-02-26T18:56:21;3.43;;;2.07;;
11655;SDS011;5884;43.618;1.438;2023-02-26T18:58:48;3.70;;;2.37;;
11655;SDS011;5884;43.618;1.438;2023-02-26T19:01:15;6.80;;;3.30;;
11655;SDS011;5884;43.618;1.438;2023-02-26T19:03:44;7.00;;;3.70;;
11655;SDS011;5884;43.618;1.438;2023-02-26T19:06:11;5.77;;;3.57;;
11655;SDS011;5884;43.618;1.438;2023-02-26T19:08:38;5.87;;;3.10;;
11655;SDS011;5884;43.618;1.438;2023-02-26T19:11:06;4.67;;;2.93;;
11655;SDS011;5884;43.618;1.438;2023-02-26T19:13:33;4.00;;;2.33;;
11655;SDS011;5884;43.618;1.438;2023-02-26T19:16:01;8.87;;;3.50;;
11655;SDS011;5884;43.618;1.438;2023-02-26T19:18:28;6.27;;;3.17;;
11655;SDS011;5884;43.618;1.438;2023-02-26T19:20:57;3.57;;;2.47;;
11655;SDS011;5884;43.618;1.438;2023-02-26T19:23:26;5.63;;;2.87;;
11655;SDS011;5884;43.618;1.438;2023-02-26T19:25:53;3.93;;;2.60;;
11655;SDS011;5884;43.618;1.438;2023-02-26T19:28:20;4.67;;;2.40;;
11655;SDS011;5884;43.618;1.438;2023-02-26T19:30:48;5.40;;;2.40;;
11655;SDS011;5884;43.618;1.438;2023-02-26T19:33:19;6.33;;;3.30;;
11655;SDS011;5884;43.618;1.438;2023-02-26T19:35:48;5.03;;;2.83;;
11655;SDS011;5884;43.618;1.438;2023-02-26T19:38:16;6.00;;;3.50;;
11655;SDS011;5884;43.618;1.438;2023-02-26T19:40:43;6.97;;;3.40;;
11655;SDS011;5884;43.618;1.438;2023-02-26T19:43:11;7.33;;;3.43;;
11655;SDS011;5884;43.618;1.438;2023-02-26T19:45:38;4.97;;;3.00;;
11655;SDS011;5884;43.618;1.438;2023-02-26T19:48:05;7.17;;;3.07;;
11655;SDS011;5884;43.618;1.438;2023-02-26T19:50:32;4.63;;;2.90;;
11655;SDS011;5884;43.618;1.438;2023-02-26T19:52:59;3.80;;;2.77;;
11655;SDS011;5884;43.618;1.438;2023-02-26T19:55:29;4.57;;;2.80;;
11655;SDS011;5884;43.618;1.438;2023-02-26T19:57:56;5.63;;;2.83;;
11655;SDS011;5884;43.618;1.438;2023-02-26T20:00:23;5.23;;;2.90;;
11655;SDS011;5884;43.618;1.438;2023-02-26T20:02:50;5.17;;;3.27;;
11655;SDS011;5884;43.618;1.438;2023-02-26T20:05:19;7.97;;;3.57;;
11655;SDS011;5884;43.618;1.438;2023-02-26T20:07:46;5.90;;;3.10;;
11655;SDS011;5884;43.618;1.438;2023-02-26T20:10:15;5.97;;;3.27;;
11655;SDS011;5884;43.618;1.438;2023-02-26T20:12:48;4.80;;;2.83;;
11655;SDS011;5884;43.618;1.438;2023-02-26T20:15:16;5.93;;;3.50;;
11655;SDS011;5884;43.618;1.438;2023-02-26T20:17:43;5.00;;;3.20;;
11655;SDS011;5884;43.618;1.438;2023-02-26T20:20:11;6.70;;;3.20;;
11655;SDS011;5884;43.618;1.438;2023-02-26T20:22:40;7.57;;;3.10;;
11655;SDS011;5884;43.618;1.438;2023-02-26T20:25:08;4.53;;;3.10;;
11655;SDS011;5884;43.618;1.438;2023-02-26T20:27:35;6.37;;;3.33;;
11655;SDS011;5884;43.618;1.438;2023-02-26T20:30:05;5.03;;;3.47;;
11655;SDS011;5884;43.618;1.438;2023-02-26T20:32:35;8.47;;;3.73;;
11655;SDS011;5884;43.618;1.438;2023-02-26T20:35:03;6.00;;;3.23;;
11655;SDS011;5884;43.618;1.438;2023-02-26T20:37:31;8.57;;;3.43;;
11655;SDS011;5884;43.618;1.438;2023-02-26T20:39:59;5.33;;;2.90;;
11655;SDS011;5884;43.618;1.438;2023-02-26T20:42:26;6.87;;;2.87;;
11655;SDS011;5884;43.618;1.438;2023-02-26T20:44:53;5.03;;;3.37;;
11655;SDS011;5884;43.618;1.438;2023-02-26T20:47:22;6.37;;;3.57;;
11655;SDS011;5884;43.618;1.438;2023-02-26T20:49:49;4.87;;;2.93;;
11655;SDS011;5884;43.618;1.438;2023-02-26T20:52:17;5.27;;;2.97;;
11655;SDS011;5884;43.618;1.438;2023-02-26T20:54:45;5.17;;;3.53;;
11655;SDS011;5884;43.618;1.438;2023-02-26T20:57:13;8.13;;;3.77;;
11655;SDS011;5884;43.618;1.438;2023-02-26T20:59:41;7.00;;;3.23;;
11655;SDS011;5884;43.618;1.438;2023-02-26T21:02:09;6.53;;;3.87;;
11655;SDS011;5884;43.618;1.438;2023-02-26T21:04:41;9.87;;;5.37;;
11655;SDS011;5884;43.618;1.438;2023-02-26T21:07:11;7.83;;;4.43;;
11655;SDS011;5884;43.618;1.438;2023-02-26T21:09:41;5.37;;;3.00;;
11655;SDS011;5884;43.618;1.438;2023-02-26T21:12:12;6.37;;;2.90;;
11655;SDS011;5884;43.618;1.438;2023-02-26T21:14:40;5.27;;;3.03;;
11655;SDS011;5884;43.618;1.438;2023-02-26T21:17:08;5.03;;;3.10;;
11655;SDS011;5884;43.618;1.438;2023-02-26T21:19:36;4.47;;;2.73;;
11655;SDS011;5884;43.618;1.438;2023-02-26T21:22:05;4.23;;;2.77;;
11655;SDS011;5884;43.618;1.438;2023-02-26T21:24:32;4.17;;;2.63;;
11655;SDS011;5884;43.618;1.438;2023-02-26T21:27:00;4.27;;;2.47;;
11655;SDS011;5884;43.618;1.438;2023-02-26T21:29:27;3.80;;;2.67;;
11655;SDS011;5884;43.618;1.438;2023-02-26T21:31:54;4.07;;;2.20;;
11655;SDS011;5884;43.618;1.438;2023-02-26T21:34:27;3.97;;;2.77;;
11655;SDS011;5884;43.618;1.438;2023-02-26T21:36:59;5.63;;;2.70;;
11655;SDS011;5884;43.618;1.438;2023-02-26T21:39:29;5.00;;;2.57;;
11655;SDS011;5884;43.618;1.438;2023-02-26T21:41:58;5.77;;;2.10;;